Time;durP1;ratioP1;P1;durP2;ratioP2;P2;SDS_P1;SDS_P2;PMS_P1;PMS_P2;Temp;Humidity;BMP_temperature;BMP_pressure;BME280_temperature;BME280_humidity;BME280_pressure;Samples;Min_cycle;Max_cycle;Signal;HPM_P1;HPM_P2
2024/02/03 00:02:07;;;;;;;1.70;1.20;;;;;;;8.14;81.37;100062.75;109046;1254;138598;-67
2024/02/03 00:04:36;;;;;;;6.00;1.40;;;;;;;8.14;81.45;100059.27;109183;1256;60767;-68
2024/02/03 00:07:03;;;;;;;1.80;1.30;;;;;;;8.15;81.56;100054.02;106645;1259;138604;-69
2024/02/03 00:09:30;;;;;;;2.40;1.60;;;;;;;8.14;81.47;100044.23;105026;1258;74935;-68
2024/02/03 00:11:57;;;;;;;3.50;1.40;;;;;;;8.15;81.50;100042.69;104965;1257;139080;-67
2024/02/03 00:14:23;;;;;;;2.80;1.20;;;;;;;8.14;81.53;100039.67;105009;1255;73754;-69
2024/02/03 00:16:50;;;;;;;2.00;1.10;;;;;;;8.13;81.60;100040.54;105132;1257;61246;-68
2024/02/03 00:19:17;;;;;;;1.50;1.00;;;;;;;8.14;81.57;100045.27;105010;1259;138535;-68
2024/02/03 00:21:43;;;;;;;2.90;1.20;;;;;;;8.15;81.65;100043.37;105168;1255;74518;-68
2024/02/03 00:24:10;;;;;;;1.60;1.20;;;;;;;8.15;81.72;100040.21;104947;1257;138678;-67
2024/02/03 00:26:37;;;;;;;3.00;1.10;;;;;;;8.14;81.85;100046.48;105093;1254;71172;-68
2024/02/03 00:29:03;;;;;;;3.00;1.30;;;;;;;8.13;81.87;100042.80;105152;1259;61358;-68
2024/02/03 00:31:30;;;;;;;2.60;1.40;;;;;;;8.13;81.95;100044.56;105000;1258;139520;-69
2024/02/03 00:33:57;;;;;;;2.80;1.00;;;;;;;8.11;81.91;100046.43;105237;1259;76308;-67
2024/02/03 00:36:25;;;;;;;3.70;1.20;;;;;;;8.11;82.00;100056.05;104852;1260;139714;-68
2024/02/03 00:38:52;;;;;;;3.10;1.10;;;;;;;8.09;82.04;100050.23;109140;1254;73478;-67
2024/02/03 00:41:18;;;;;;;1.70;1.00;;;;;;;8.10;82.15;100048.52;109176;1255;58974;-68
2024/02/03 00:43:45;;;;;;;1.70;1.00;;;;;;;8.10;82.06;100046.41;108850;1261;138785;-67
2024/02/03 00:46:12;;;;;;;2.80;1.20;;;;;;;8.11;82.14;100051.50;109241;1254;73911;-68
2024/02/03 00:48:38;;;;;;;1.20;0.90;;;;;;;8.11;82.13;100049.40;109104;1254;139240;-68
2024/02/03 00:51:09;;;;;;;3.90;1.20;;;;;;;8.11;82.19;100046.77;109227;1254;71929;-67
2024/02/03 00:53:36;;;;;;;2.00;1.20;;;;;;;8.13;82.15;100056.08;109184;1258;58998;-68
2024/02/03 00:56:04;;;;;;;3.50;1.60;;;;;;;8.13;82.18;100056.80;108923;1254;139246;-68
2024/02/03 00:58:30;;;;;;;1.90;1.10;;;;;;;8.14;82.19;100060.29;109205;1256;74178;-67
2024/02/03 01:00:57;;;;;;;4.00;1.30;;;;;;;8.13;82.18;100054.34;109100;1254;139232;-68
2024/02/03 01:03:27;;;;;;;1.80;1.20;;;;;;;8.15;82.20;100058.41;109185;1254;73318;-68
2024/02/03 01:05:53;;;;;;;1.50;1.10;;;;;;;8.16;82.19;100061.59;109068;1254;138941;-60
2024/02/03 01:08:20;;;;;;;2.90;1.10;;;;;;;8.17;82.08;100066.48;109206;1254;59110;-67
2024/02/03 01:10:47;;;;;;;2.90;1.30;;;;;;;8.17;82.08;100078.55;109044;1256;75051;-60
2024/02/03 01:13:14;;;;;;;2.00;1.10;;;;;;;8.17;82.18;100077.84;107103;1259;138658;-60
2024/02/03 01:15:40;;;;;;;1.70;1.20;;;;;;;8.18;82.20;100081.19;104930;1260;70983;-60
2024/02/03 01:18:07;;;;;;;2.40;1.10;;;;;;;8.17;82.20;100079.42;104999;1257;139370;-60
2024/02/03 01:20:34;;;;;;;1.40;1.00;;;;;;;8.17;82.17;100090.44;105103;1255;61261;-60
2024/02/03 01:23:00;;;;;;;2.20;1.00;;;;;;;8.17;82.19;100085.02;105111;1257;74044;-59
2024/02/03 01:25:27;;;;;;;2.20;1.00;;;;;;;8.17;82.23;100091.83;105028;1255;138802;-68
2024/02/03 01:27:54;;;;;;;2.00;1.50;;;;;;;8.16;82.22;100095.66;104976;1259;73663;-69
2024/02/03 01:30:20;;;;;;;2.60;1.10;;;;;;;8.14;82.28;100093.85;104924;1257;138646;-68
2024/02/03 01:32:48;;;;;;;2.70;1.40;;;;;;;8.13;82.34;100106.93;105060;1260;61177;-68
2024/02/03 01:35:15;;;;;;;3.70;1.50;;;;;;;8.12;82.41;100104.11;109179;1254;73659;-60
2024/02/03 01:37:41;;;;;;;3.00;1.20;;;;;;;8.12;82.43;100112.69;105003;1258;138588;-60
2024/02/03 01:40:11;;;;;;;1.00;0.90;;;;;;;8.11;82.52;100118.08;105036;1257;73140;-60
2024/02/03 01:42:38;;;;;;;2.30;1.30;;;;;;;8.10;82.42;100112.78;108654;1255;139328;-60
2024/02/03 01:45:05;;;;;;;2.20;1.10;;;;;;;8.09;82.53;100121.86;105010;1259;61265;-67
2024/02/03 01:47:32;;;;;;;3.20;1.20;;;;;;;8.08;82.44;100124.97;106779;1258;74051;-60
2024/02/03 01:49:59;;;;;;;3.60;1.70;;;;;;;8.07;82.53;100124.11;104754;1257;139064;-68
2024/02/03 01:52:26;;;;;;;2.40;1.10;;;;;;;8.06;82.54;100117.08;104955;1254;72598;-67
2024/02/03 01:54:52;;;;;;;1.70;1.10;;;;;;;8.06;82.63;100115.32;108836;1254;138568;-60
2024/02/03 01:57:20;;;;;;;2.10;1.00;;;;;;;8.05;82.62;100127.36;105182;1258;61249;-69
2024/02/03 01:59:47;;;;;;;2.90;1.60;;;;;;;8.05;82.71;100129.11;107980;1259;72553;-61
2024/02/03 02:02:13;;;;;;;1.90;1.40;;;;;;;8.05;82.67;100137.16;104887;1256;138312;-68
2024/02/03 02:04:40;;;;;;;0.90;0.60;;;;;;;8.05;82.63;100141.35;104880;1260;73030;-61
2024/02/03 02:07:07;;;;;;;0.60;0.60;;;;;;;8.04;82.66;100143.23;104853;1257;138456;-68
2024/02/03 02:09:34;;;;;;;1.00;0.80;;;;;;;8.03;82.68;100144.61;104974;1260;61649;-68
2024/02/03 02:12:01;;;;;;;1.70;0.80;;;;;;;8.02;82.72;100127.98;104923;1258;138844;-59
2024/02/03 02:14:28;;;;;;;1.10;0.80;;;;;;;8.01;82.72;100134.95;105016;1259;67306;-61
2024/02/03 02:16:57;;;;;;;1.30;0.60;;;;;;;8.00;82.80;100132.83;104852;1262;71288;-61
2024/02/03 02:19:24;;;;;;;1.50;0.90;;;;;;;7.98;82.75;100132.94;104903;1264;138611;-59
2024/02/03 02:21:51;;;;;;;1.40;0.80;;;;;;;7.96;82.79;100137.62;104865;1254;61138;-59
2024/02/03 02:24:18;;;;;;;1.60;0.50;;;;;;;7.93;82.69;100128.98;105085;1254;138607;-59
2024/02/03 02:26:45;;;;;;;2.90;0.90;;;;;;;7.91;82.74;100125.45;109020;1254;65550;-60
2024/02/03 02:29:12;;;;;;;0.40;0.40;;;;;;;7.90;82.73;100137.63;109187;1256;73633;-60
2024/02/03 02:31:38;;;;;;;0.50;0.50;;;;;;;7.87;82.73;100136.35;107904;1256;138419;-59
2024/02/03 02:34:05;;;;;;;0.60;0.40;;;;;;;7.87;82.77;100141.04;104983;1258;61449;-58
2024/02/03 02:36:32;;;;;;;1.30;0.60;;;;;;;7.89;82.77;100141.09;104954;1259;139133;-67
2024/02/03 02:38:58;;;;;;;2.00;0.40;;;;;;;7.90;82.84;100142.01;104969;1254;66048;-60
2024/02/03 02:41:25;;;;;;;0.40;0.40;;;;;;;7.90;82.76;100134.84;105022;1254;73356;-69
2024/02/03 02:43:51;;;;;;;0.40;0.40;;;;;;;7.90;82.87;100140.95;104869;1268;139017;-60
2024/02/03 02:46:25;;;;;;;0.40;0.30;;;;;;;7.90;82.85;100136.41;105178;1260;61244;-60
2024/02/03 02:48:53;;;;;;;;;;;;;;;7.90;82.83;100133.44;105026;1256;140299;-60
2024/02/03 02:51:20;;;;;;;1.20;0.70;;;;;;;7.91;82.87;100132.25;109185;1254;67182;-62
2024/02/03 02:53:46;;;;;;;0.30;0.30;;;;;;;7.91;82.89;100140.47;108989;1257;73978;-61
2024/02/03 02:56:13;;;;;;;0.30;0.30;;;;;;;7.93;82.94;100135.45;109121;1254;138510;-61
2024/02/03 02:58:40;;;;;;;1.00;0.60;;;;;;;7.95;82.88;100132.86;109032;1256;59839;-61
2024/02/03 03:01:07;;;;;;;0.60;0.50;;;;;;;7.93;82.80;100126.71;108989;1259;138414;-59
2024/02/03 03:03:34;;;;;;;0.40;0.40;;;;;;;7.92;82.85;100123.19;108965;1256;66249;-60
2024/02/03 03:06:01;;;;;;;0.30;0.30;;;;;;;7.92;82.88;100123.01;108856;1257;138524;-60
2024/02/03 03:08:28;;;;;;;0.70;0.50;;;;;;;7.92;82.83;100114.98;109050;1257;59057;-68
2024/02/03 03:10:54;;;;;;;0.60;0.50;;;;;;;7.93;82.82;100111.32;106385;1259;61343;-59
2024/02/03 03:13:21;;;;;;;0.40;0.30;;;;;;;7.93;82.86;100106.08;105133;1257;138763;-67
2024/02/03 03:15:48;;;;;;;0.60;0.60;;;;;;;7.92;82.91;100110.26;105014;1257;66595;-59
2024/02/03 03:18:15;;;;;;;1.20;0.70;;;;;;;7.93;83.02;100112.39;105250;1259;139547;-60
2024/02/03 03:20:43;;;;;;;0.50;0.50;;;;;;;7.93;82.96;100098.59;104932;1259;61537;-69
2024/02/03 03:23:10;;;;;;;1.60;0.60;;;;;;;7.91;82.84;100093.30;109098;1254;59383;-67
2024/02/03 03:25:37;;;;;;;0.60;0.40;;;;;;;7.87;82.88;100081.83;107664;1260;138428;-69
2024/02/03 03:28:04;;;;;;;0.50;0.30;;;;;;;7.81;82.96;100091.99;105090;1259;66563;-59
2024/02/03 03:30:31;;;;;;;0.60;0.50;;;;;;;7.77;83.01;100090.83;104953;1260;139143;-59
2024/02/03 03:32:57;;;;;;;1.10;0.60;;;;;;;7.75;83.22;100096.04;104971;1258;61545;-67
2024/02/03 03:35:25;;;;;;;1.10;0.50;;;;;;;7.75;83.30;100092.17;105078;1259;61310;-67
2024/02/03 03:37:53;;;;;;;0.90;0.60;;;;;;;7.74;83.36;100090.94;104977;1260;139173;-58
2024/02/03 03:40:19;;;;;;;0.90;0.50;;;;;;;7.72;83.36;100092.27;109122;1256;66674;-67
2024/02/03 03:42:47;;;;;;;0.70;0.50;;;;;;;7.71;83.44;100096.27;109041;1254;138306;-59
2024/02/03 03:45:14;;;;;;;0.60;0.50;;;;;;;7.72;83.64;100100.33;108578;1257;58985;-59
2024/02/03 03:47:41;;;;;;;1.30;0.80;;;;;;;7.79;83.90;100118.12;105017;1259;61446;-62
2024/02/03 03:50:08;;;;;;;0.40;0.40;;;;;;;7.86;83.99;100132.99;104966;1258;139838;-60
2024/02/03 03:52:35;;;;;;;0.50;0.50;;;;;;;7.93;84.03;100131.94;109177;1257;67298;-60
2024/02/03 03:55:02;;;;;;;0.90;0.80;;;;;;;7.98;84.05;100140.64;109058;1255;138350;-69
2024/02/03 03:57:29;;;;;;;2.80;1.30;;;;;;;8.01;84.16;100150.33;109166;1254;59258;-60
2024/02/03 03:59:55;;;;;;;4.20;1.70;;;;;;;8.04;84.06;100150.56;109077;1255;138871;-68
2024/02/03 04:02:22;;;;;;;2.50;1.20;;;;;;;8.02;84.35;100154.55;109115;1255;74930;-69
2024/02/03 04:04:49;;;;;;;2.60;1.50;;;;;;;7.99;84.30;100140.14;109236;1259;67265;-60
2024/02/03 04:07:16;;;;;;;4.70;1.20;;;;;;;7.97;84.44;100162.47;109103;1255;139369;-60
2024/02/03 04:09:48;;;;;;;2.70;1.20;;;;;;;7.97;84.45;100144.45;109191;1254;59718;-61
2024/02/03 04:12:15;;;;;;;1.90;0.90;;;;;;;7.95;84.41;100146.16;108862;1256;139310;-60
2024/02/03 04:14:42;;;;;;;1.70;1.00;;;;;;;7.95;84.41;100140.91;109116;1255;74614;-60
2024/02/03 04:17:09;;;;;;;1.20;0.80;;;;;;;7.95;84.41;100151.23;108976;1260;65041;-60
2024/02/03 04:19:36;;;;;;;2.30;1.00;;;;;;;7.94;84.26;100148.94;108997;1259;138543;-68
2024/02/03 04:22:03;;;;;;;3.30;0.90;;;;;;;7.93;84.17;100148.05;109064;1256;59441;-61
2024/02/03 04:24:29;;;;;;;2.00;0.90;;;;;;;7.95;84.16;100145.27;108969;1256;139174;-60
2024/02/03 04:26:57;;;;;;;1.80;0.70;;;;;;;7.92;84.03;100119.69;108982;1256;75032;-61
2024/02/03 04:29:23;;;;;;;2.10;0.90;;;;;;;7.89;83.99;100119.28;109127;1257;66196;-69
2024/02/03 04:31:50;;;;;;;3.50;0.90;;;;;;;7.85;83.88;100116.70;108864;1260;139223;-69
2024/02/03 04:34:18;;;;;;;2.00;0.70;;;;;;;7.77;83.71;100115.30;109045;1255;59382;-69
2024/02/03 04:36:46;;;;;;;1.30;0.80;;;;;;;7.71;83.67;100109.90;108996;1255;138468;-68
2024/02/03 04:39:13;;;;;;;1.10;0.60;;;;;;;7.65;83.71;100116.36;109103;1256;75719;-68
2024/02/03 04:41:39;;;;;;;1.70;0.80;;;;;;;7.63;83.79;100120.16;109121;1256;65245;-69
2024/02/03 04:44:06;;;;;;;2.10;0.60;;;;;;;7.62;83.82;100125.36;108973;1255;138625;-69
2024/02/03 04:46:33;;;;;;;2.00;0.70;;;;;;;7.64;84.02;100133.46;105433;1263;60070;-68
2024/02/03 04:48:59;;;;;;;1.60;0.80;;;;;;;7.69;84.06;100147.05;104947;1260;139267;-68
2024/02/03 04:51:29;;;;;;;1.60;0.80;;;;;;;7.73;83.97;100150.31;104909;1260;75224;-68
2024/02/03 04:53:55;;;;;;;1.30;0.90;;;;;;;7.72;84.06;100160.05;108963;1257;138584;-67
2024/02/03 04:56:22;;;;;;;1.70;0.90;;;;;;;7.68;84.16;100154.17;109091;1256;72716;-68
2024/02/03 04:58:49;;;;;;;1.80;0.90;;;;;;;7.63;83.90;100170.82;108954;1256;59153;-68
2024/02/03 05:01:15;;;;;;;1.70;0.90;;;;;;;7.59;83.84;100165.79;108964;1255;138486;-67
2024/02/03 05:03:42;;;;;;;0.90;0.70;;;;;;;7.56;83.79;100164.86;106794;1257;74722;-68
2024/02/03 05:06:10;;;;;;;2.50;1.20;;;;;;;7.56;83.85;100180.40;104837;1269;139749;-68
2024/02/03 05:08:37;;;;;;;4.20;1.70;;;;;;;7.55;83.81;100172.68;104916;1259;73593;-68
2024/02/03 05:11:03;;;;;;;2.20;1.10;;;;;;;7.51;83.65;100181.46;104974;1258;61372;-67
2024/02/03 05:13:30;;;;;;;2.70;0.90;;;;;;;7.46;83.70;100184.48;104686;1261;138967;-69
2024/02/03 05:15:57;;;;;;;2.50;1.10;;;;;;;7.44;83.90;100189.28;104823;1260;75928;-68
2024/02/03 05:18:24;;;;;;;1.10;0.80;;;;;;;7.42;83.96;100193.27;104710;1260;138982;-68
2024/02/03 05:20:51;;;;;;;1.00;0.80;;;;;;;7.45;84.16;100191.60;108928;1257;73688;-68
2024/02/03 05:23:18;;;;;;;2.30;0.90;;;;;;;7.47;84.17;100193.39;108853;1263;59205;-68
2024/02/03 05:25:46;;;;;;;2.30;0.90;;;;;;;7.48;84.23;100192.21;108998;1256;138616;-60
2024/02/03 05:28:12;;;;;;;2.90;1.00;;;;;;;7.52;84.27;100195.30;109068;1256;73368;-60
2024/02/03 05:30:39;;;;;;;2.60;1.00;;;;;;;7.55;84.27;100201.85;108963;1257;138669;-60
2024/02/03 05:33:06;;;;;;;1.90;0.90;;;;;;;7.60;84.34;100197.95;108893;1257;73725;-60
2024/02/03 05:35:33;;;;;;;2.60;0.80;;;;;;;7.65;84.30;100200.56;108895;1257;59595;-60
2024/02/03 05:38:00;;;;;;;2.00;0.90;;;;;;;7.70;84.28;100193.19;109017;1257;139066;-68
2024/02/03 05:40:26;;;;;;;2.60;0.70;;;;;;;7.76;84.40;100191.07;108975;1257;75470;-68
2024/02/03 05:42:53;;;;;;;1.90;1.00;;;;;;;7.82;84.41;100187.02;108867;1258;138807;-68
2024/02/03 05:45:22;;;;;;;3.00;1.10;;;;;;;7.85;84.33;100190.80;109107;1257;71897;-60
2024/02/03 05:47:50;;;;;;;3.70;1.30;;;;;;;7.87;84.32;100197.31;108982;1256;59300;-60
2024/02/03 05:50:16;;;;;;;2.80;1.10;;;;;;;7.90;84.25;100201.58;108808;1257;139505;-68
2024/02/03 05:52:43;;;;;;;3.00;1.10;;;;;;;7.90;84.18;100195.64;109042;1255;74366;-60
2024/02/03 05:55:11;;;;;;;0.80;0.80;;;;;;;7.89;84.17;100197.02;106313;1257;138908;-68
2024/02/03 05:57:52;;;;;;;1.30;0.80;;;;;;;7.91;84.33;100197.05;105075;1260;72183;-69
2024/02/03 06:00:19;;;;;;;3.40;1.20;;;;;;;7.94;84.39;100200.11;109017;1256;138714;-68
2024/02/03 06:02:46;;;;;;;3.10;1.00;;;;;;;7.97;84.53;100197.05;108958;1256;59217;-60
2024/02/03 06:05:13;;;;;;;2.30;1.10;;;;;;;8.00;84.62;100200.80;109020;1257;72292;-67
2024/02/03 06:07:40;;;;;;;2.50;1.20;;;;;;;8.03;84.69;100206.11;108793;1256;138346;-67
2024/02/03 06:10:07;;;;;;;4.90;1.10;;;;;;;8.05;84.70;100211.59;108613;1255;72775;-60
2024/02/03 06:12:34;;;;;;;2.80;1.40;;;;;;;8.08;84.68;100209.04;104581;1264;138807;-61
2024/02/03 06:15:02;;;;;;;2.20;1.30;;;;;;;8.09;84.76;100215.36;104807;1262;61298;-68
2024/02/03 06:17:29;;;;;;;4.90;1.30;;;;;;;8.09;84.85;100223.76;108928;1257;74553;-67
2024/02/03 06:19:56;;;;;;;2.20;1.20;;;;;;;8.10;84.91;100214.17;108889;1257;138550;-59
2024/02/03 06:22:22;;;;;;;4.10;1.70;;;;;;;8.11;84.94;100215.60;107032;1260;73584;-61
2024/02/03 06:24:49;;;;;;;3.60;1.50;;;;;;;8.12;84.96;100223.82;104842;1257;138523;-61
2024/02/03 06:27:16;;;;;;;3.80;1.30;;;;;;;8.11;85.04;100216.99;104856;1261;61291;-68
2024/02/03 06:29:42;;;;;;;4.30;1.40;;;;;;;8.11;85.12;100220.84;104747;1257;74071;-61
2024/02/03 06:32:09;;;;;;;5.70;1.60;;;;;;;8.12;85.23;100213.70;104691;1261;138440;-67
2024/02/03 06:34:36;;;;;;;3.80;1.70;;;;;;;8.14;85.30;100212.16;104867;1260;73271;-59
2024/02/03 06:37:04;;;;;;;2.70;1.30;;;;;;;8.14;85.36;100208.67;104844;1260;138914;-60
2024/02/03 06:39:30;;;;;;;4.10;1.40;;;;;;;8.17;85.39;100208.23;108946;1257;60719;-67
2024/02/03 06:41:57;;;;;;;3.90;1.60;;;;;;;8.18;86.27;100197.05;104710;1257;139083;-61
2024/02/03 06:44:24;;;;;;;3.40;1.50;;;;;;;8.20;86.46;100206.90;108874;1257;67101;-67
2024/02/03 06:46:51;;;;;;;5.50;1.90;;;;;;;8.24;85.91;100209.80;108936;1257;73720;-67
2024/02/03 06:49:18;;;;;;;4.00;2.00;;;;;;;8.26;85.78;100200.77;108863;1256;138884;-59
2024/02/03 06:51:44;;;;;;;2.50;1.60;;;;;;;8.31;85.75;100205.10;107672;1257;59690;-59
2024/02/03 06:54:11;;;;;;;6.50;2.40;;;;;;;8.36;85.68;100207.85;104938;1258;138653;-68
2024/02/03 06:56:38;;;;;;;5.00;2.20;;;;;;;8.40;85.54;100206.55;104845;1261;65409;-68
2024/02/03 06:59:04;;;;;;;5.00;2.40;;;;;;;8.45;85.49;100204.59;104798;1258;72588;-68
2024/02/03 07:01:31;;;;;;;5.10;2.30;;;;;;;8.49;85.44;100203.65;104772;1261;138553;-67
2024/02/03 07:03:58;;;;;;;5.60;2.50;;;;;;;8.54;85.37;100210.95;104701;1263;61483;-60
2024/02/03 07:06:25;;;;;;;6.50;3.10;;;;;;;8.59;85.23;100226.98;104646;1256;139033;-61
2024/02/03 07:08:51;;;;;;;8.40;2.80;;;;;;;8.63;85.14;100220.25;104814;1258;64213;-62
2024/02/03 07:11:18;;;;;;;5.90;2.80;;;;;;;8.66;85.00;100218.40;104847;1258;73810;-59
2024/02/03 07:13:45;;;;;;;4.30;2.40;;;;;;;8.67;84.90;100221.75;104816;1257;139177;-67
2024/02/03 07:16:12;;;;;;;6.40;2.70;;;;;;;8.67;84.76;100218.09;105067;1259;61960;-59
2024/02/03 07:18:38;;;;;;;5.80;2.70;;;;;;;8.69;84.77;100218.80;104998;1257;139272;-67
2024/02/03 07:21:06;;;;;;;6.50;3.00;;;;;;;8.71;84.59;100216.42;104839;1256;67497;-68
2024/02/03 07:23:32;;;;;;;5.30;2.40;;;;;;;8.71;84.43;100231.83;109038;1254;73680;-67
2024/02/03 07:25:59;;;;;;;6.70;2.60;;;;;;;8.73;84.36;100233.79;109078;1254;138707;-66
2024/02/03 07:28:26;;;;;;;6.60;3.00;;;;;;;8.74;84.31;100241.34;109182;1254;59420;-67
2024/02/03 07:30:52;;;;;;;6.10;2.90;;;;;;;8.76;84.05;100240.33;109048;1254;138530;-67
2024/02/03 07:33:19;;;;;;;3.40;2.20;;;;;;;8.78;84.03;100249.48;109012;1254;66173;-66
2024/02/03 07:35:46;;;;;;;6.70;2.50;;;;;;;8.80;83.88;100250.05;109130;1254;73283;-66
2024/02/03 07:38:12;;;;;;;5.20;2.30;;;;;;;8.80;83.60;100250.38;105308;1259;138975;-67
2024/02/03 07:40:39;;;;;;;5.90;2.00;;;;;;;8.82;83.47;100252.02;105045;1257;61516;-68
2024/02/03 07:43:06;;;;;;;6.00;2.30;;;;;;;8.84;83.44;100254.33;104906;1257;139173;-67
2024/02/03 07:45:33;;;;;;;7.30;2.30;;;;;;;8.88;83.30;100254.61;104954;1254;67405;-67
2024/02/03 07:47:59;;;;;;;5.80;2.60;;;;;;;8.93;83.22;100246.32;104809;1259;139105;-67
2024/02/03 07:50:26;;;;;;;7.70;2.60;;;;;;;8.97;83.10;100242.05;104943;1256;61353;-67
2024/02/03 07:52:53;;;;;;;7.00;2.70;;;;;;;9.02;83.09;100243.92;105079;1258;61183;-68
2024/02/03 07:55:19;;;;;;;8.10;2.90;;;;;;;9.07;82.84;100238.94;104896;1259;138652;-67
2024/02/03 07:57:46;;;;;;;9.50;3.20;;;;;;;9.09;82.70;100244.78;104983;1258;66339;-67
2024/02/03 08:00:13;;;;;;;10.40;3.00;;;;;;;9.10;82.42;100245.51;104886;1259;139273;-67
2024/02/03 08:02:40;;;;;;;11.30;3.50;;;;;;;9.11;82.51;100249.02;109165;1254;59472;-67
2024/02/03 08:05:07;;;;;;;7.10;3.10;;;;;;;9.13;82.36;100244.69;109213;1254;59117;-67
2024/02/03 08:07:36;;;;;;;10.10;3.40;;;;;;;9.17;82.33;100242.84;109034;1258;138514;-67
2024/02/03 08:10:03;;;;;;;9.50;3.10;;;;;;;9.19;82.10;100243.25;109190;1254;65174;-67
2024/02/03 08:12:29;;;;;;;9.00;2.80;;;;;;;9.22;82.05;100252.95;108948;1254;138871;-67
2024/02/03 08:14:56;;;;;;;9.00;3.00;;;;;;;9.26;81.86;100248.66;105034;1254;62344;-67
2024/02/03 08:17:23;;;;;;;8.20;3.30;;;;;;;9.30;81.83;100243.51;105049;1259;61861;-67
2024/02/03 08:19:49;;;;;;;10.40;4.10;;;;;;;9.35;81.81;100238.52;104929;1256;138586;-67
2024/02/03 08:22:16;;;;;;;9.90;3.10;;;;;;;9.39;81.55;100248.92;104961;1259;67540;-67
2024/02/03 08:24:43;;;;;;;10.00;3.30;;;;;;;9.43;81.39;100256.21;104935;1254;138776;-67
2024/02/03 08:27:09;;;;;;;12.40;3.10;;;;;;;9.44;81.27;100266.20;105130;1260;67418;-67
2024/02/03 08:29:36;;;;;;;10.50;3.00;;;;;;;9.46;81.23;100257.67;104904;1254;61340;-67
2024/02/03 08:32:03;;;;;;;11.70;3.30;;;;;;;9.50;81.30;100263.38;104946;1260;139552;-67
2024/02/03 08:34:30;;;;;;;5.50;2.50;;;;;;;9.57;81.17;100268.23;109145;1254;66891;-67
2024/02/03 08:36:56;;;;;;;9.20;3.10;;;;;;;9.61;81.03;100268.14;109063;1254;138322;-67
2024/02/03 08:39:23;;;;;;;12.00;2.80;;;;;;;9.63;80.67;100272.39;109187;1254;59254;-67
2024/02/03 08:41:49;;;;;;;9.30;3.20;;;;;;;9.63;80.37;100277.30;109177;1254;59878;-67
2024/02/03 08:44:16;;;;;;;6.50;2.60;;;;;;;9.66;80.58;100278.05;109098;1254;138952;-67
2024/02/03 08:46:43;;;;;;;8.00;2.70;;;;;;;9.70;80.63;100278.69;109186;1254;64375;-67
2024/02/03 08:49:10;;;;;;;10.70;3.50;;;;;;;9.78;80.68;100283.05;109056;1254;138364;-67
2024/02/03 08:51:36;;;;;;;5.40;2.40;;;;;;;9.85;80.52;100282.50;109171;1254;60767;-67
2024/02/03 08:54:03;;;;;;;7.40;3.20;;;;;;;9.92;80.37;100281.74;109095;1254;138820;-66
2024/02/03 08:56:30;;;;;;;6.90;2.40;;;;;;;9.99;80.21;100279.97;109223;1254;73804;-67
2024/02/03 08:58:56;;;;;;;6.80;2.30;;;;;;;10.06;79.92;100277.46;109184;1254;66529;-67
2024/02/03 09:01:23;;;;;;;9.80;3.30;;;;;;;10.12;79.78;100264.62;109034;1254;138833;-67
2024/02/03 09:03:50;;;;;;;7.60;2.20;;;;;;;10.17;79.64;100277.32;108358;1256;62072;-67
2024/02/03 09:06:16;;;;;;;6.00;2.70;;;;;;;10.21;79.57;100270.73;104807;1255;139598;-66
2024/02/03 09:08:43;;;;;;;9.40;2.80;;;;;;;10.20;79.42;100273.52;104945;1256;73762;-68
2024/02/03 09:11:10;;;;;;;8.40;3.50;;;;;;;10.16;79.13;100268.38;104824;1257;64633;-67
2024/02/03 09:13:36;;;;;;;7.80;2.20;;;;;;;10.07;78.93;100261.17;104998;1260;137890;-67
2024/02/03 09:16:04;;;;;;;14.30;7.00;;;;;;;9.95;78.85;100255.34;105025;1254;61337;-68
2024/02/03 09:18:30;;;;;;;6.80;2.10;;;;;;;9.84;78.58;100246.19;104998;1254;138898;-67
2024/02/03 09:20:57;;;;;;;5.30;2.20;;;;;;;9.75;78.58;100252.14;105071;1254;75194;-68
2024/02/03 09:23:24;;;;;;;7.10;2.50;;;;;;;9.71;78.82;100260.83;104609;1254;319494;-68
2024/02/03 09:25:51;;;;;;;6.20;2.60;;;;;;;9.69;78.74;100255.00;104939;1258;138662;-69
2024/02/03 09:28:18;;;;;;;6.40;3.00;;;;;;;9.69;78.78;100249.23;104988;1258;61366;-68
2024/02/03 09:30:45;;;;;;;7.60;2.10;;;;;;;9.72;78.85;100244.38;104784;1256;139215;-68
2024/02/03 09:33:11;;;;;;;6.80;2.50;;;;;;;9.76;78.78;100256.02;105034;1254;73911;-67
2024/02/03 09:35:38;;;;;;;10.90;2.40;;;;;;;9.81;78.66;100249.48;105044;1259;66593;-67
2024/02/03 09:38:05;;;;;;;10.10;2.80;;;;;;;9.91;78.74;100256.32;104953;1257;138052;-67
2024/02/03 09:40:31;;;;;;;7.70;2.60;;;;;;;10.05;78.51;100265.54;104987;1254;61362;-67
2024/02/03 09:42:58;;;;;;;11.50;4.40;;;;;;;10.21;78.62;100275.83;104881;1260;138594;-67
2024/02/03 09:45:26;;;;;;;8.50;3.50;;;;;;;10.40;78.51;100273.58;104932;1257;75605;-68
2024/02/03 09:47:53;;;;;;;8.40;2.50;;;;;;;10.53;78.16;100277.85;104806;1260;64905;-68
2024/02/03 09:50:20;;;;;;;6.80;2.40;;;;;;;10.56;77.49;100271.75;105020;1259;73563;-68
2024/02/03 09:52:49;;;;;;;7.10;2.50;;;;;;;10.59;77.47;100269.35;104938;1254;61361;-68
2024/02/03 09:55:18;;;;;;;5.90;2.40;;;;;;;10.62;77.24;100276.59;109004;1254;139252;-67
2024/02/03 09:57:47;;;;;;;8.70;2.30;;;;;;;10.59;76.83;100268.84;109113;1254;75799;-67
2024/02/03 10:00:16;;;;;;;13.80;6.30;;;;;;;10.53;76.65;100284.34;108848;1254;138451;-66
2024/02/03 10:02:43;;;;;;;6.00;2.10;;;;;;;10.47;76.46;100288.61;109188;1257;71799;-67
2024/02/03 10:05:10;;;;;;;5.50;2.20;;;;;;;10.40;76.00;100288.84;109204;1254;58892;-67
2024/02/03 10:07:36;;;;;;;7.80;2.30;;;;;;;10.34;76.29;100285.92;107931;1254;138328;-67
2024/02/03 10:10:07;;;;;;;5.90;2.50;;;;;;;10.32;76.24;100290.78;105152;1258;73603;-66
2024/02/03 10:12:34;;;;;;;6.00;2.90;;;;;;;10.33;76.29;100288.36;109095;1254;139333;-67
2024/02/03 10:15:07;;;;;;;7.30;2.40;;;;;;;10.37;76.28;100291.59;108375;1254;72890;-65
2024/02/03 10:17:34;;;;;;;6.10;1.90;;;;;;;10.46;76.26;100289.46;105049;1254;61303;-66
2024/02/03 10:20:01;;;;;;;6.00;2.20;;;;;;;10.59;76.39;100287.94;104953;1258;138125;-66
2024/02/03 10:22:29;;;;;;;8.90;2.60;;;;;;;10.71;76.31;100291.49;104985;1254;75119;-65
2024/02/03 10:24:59;;;;;;;7.00;2.20;;;;;;;10.83;76.17;100296.42;105068;1259;138011;-65
2024/02/03 10:27:26;;;;;;;16.50;3.50;;;;;;;10.99;76.07;100296.16;108903;1256;73586;-66
2024/02/03 10:29:56;;;;;;;9.40;2.90;;;;;;;11.13;75.83;100304.29;108998;1257;59283;-66
2024/02/03 10:32:22;;;;;;;9.80;2.80;;;;;;;11.26;75.33;100309.56;108560;1254;59279;-65
2024/02/03 10:34:53;;;;;;;8.60;3.00;;;;;;;11.39;75.06;100315.55;104868;1255;73862;-65
2024/02/03 10:37:20;;;;;;;7.80;2.20;;;;;;;11.42;74.36;100309.80;104721;1254;138716;-65
2024/02/03 10:39:47;;;;;;;8.50;3.60;;;;;;;11.44;74.24;100303.86;105163;1254;71643;-66
2024/02/03 10:42:20;;;;;;;6.80;2.80;;;;;;;11.44;73.85;100302.46;104933;1259;138324;-66
2024/02/03 10:44:49;;;;;;;5.30;2.40;;;;;;;11.38;73.71;100297.63;105056;1258;61289;-66
2024/02/03 10:47:20;;;;;;;8.80;2.80;;;;;;;11.29;73.35;100290.46;104851;1257;75720;-66
2024/02/03 10:49:48;;;;;;;8.20;2.40;;;;;;;11.17;73.36;100293.64;109097;1254;138314;-67
2024/02/03 10:52:14;;;;;;;12.10;5.50;;;;;;;11.04;73.15;100295.55;109178;1254;73199;-66
2024/02/03 10:54:41;;;;;;;14.20;7.60;;;;;;;10.92;73.23;100302.17;108862;1254;138014;-65
2024/02/03 10:57:08;;;;;;;11.70;5.10;;;;;;;10.85;73.19;100292.27;108531;1255;59398;-64
2024/02/03 10:59:35;;;;;;;11.40;3.50;;;;;;;10.80;72.99;100291.47;105053;1260;76035;-65
2024/02/03 11:02:01;;;;;;;9.70;2.70;;;;;;;10.73;72.85;100293.45;104771;1256;138438;-64
2024/02/03 11:04:37;;;;;;;7.30;3.10;;;;;;;10.65;72.88;100292.80;105065;1254;74149;-66
2024/02/03 11:07:04;;;;;;;8.60;2.50;;;;;;;10.62;73.13;100295.55;105040;1254;139191;-64
2024/02/03 11:09:31;;;;;;;11.30;3.30;;;;;;;10.62;73.18;100302.21;104905;1257;60684;-63
2024/02/03 11:11:58;;;;;;;7.00;2.60;;;;;;;10.62;73.25;100303.44;104973;1260;139052;-64
2024/02/03 11:14:27;;;;;;;6.10;2.10;;;;;;;10.60;73.09;100307.97;105174;1258;67505;-64
2024/02/03 11:16:55;;;;;;;7.40;2.20;;;;;;;10.59;72.91;100311.81;105007;1254;71091;-64
2024/02/03 11:19:26;;;;;;;7.70;2.40;;;;;;;10.57;72.65;100317.91;104685;1257;138838;-64